Time;durP1;ratioP1;P1;durP2;ratioP2;P2;SDS_P1;SDS_P2;PMS_P1;PMS_P2;Temp;Humidity;BMP_temperature;BMP_pressure;BME280_temperature;BME280_humidity;BME280_pressure;Samples;Min_cycle;Max_cycle;Signal;HPM_P1;HPM_P2
2022/12/03 00:01:43;;;;;;;24.63;12.13;;;2.30;99.90;;;;;;5017355;28;20183;-69
2022/12/03 00:04:09;;;;;;;22.23;12.50;;;2.30;99.90;;;;;;5015945;28;20191;-70
2022/12/03 00:06:35;;;;;;;25.20;9.77;;;2.30;99.90;;;;;;5011272;28;20506;-69
2022/12/03 00:09:00;;;;;;;21.73;10.80;;;2.20;99.90;;;;;;5011231;28;20206;-70
2022/12/03 00:11:26;;;;;;;25.00;9.70;;;2.20;99.90;;;;;;5008917;28;20179;-70
2022/12/03 00:13:51;;;;;;;29.20;11.20;;;2.10;99.90;;;;;;5008614;28;20558;-70
2022/12/03 00:16:17;;;;;;;29.20;11.37;;;2.10;99.90;;;;;;5009825;28;20190;-69
2022/12/03 00:18:43;;;;;;;24.03;10.97;;;2.20;99.90;;;;;;5005225;28;20198;-69
2022/12/03 00:21:08;;;;;;;24.27;12.40;;;2.10;99.90;;;;;;5005613;28;20188;-70
2022/12/03 00:23:34;;;;;;;27.87;11.20;;;2.10;99.90;;;;;;5008102;28;20820;-69
2022/12/03 00:25:59;;;;;;;23.00;10.57;;;2.00;99.90;;;;;;5013451;28;20202;-70
2022/12/03 00:28:25;;;;;;;24.83;11.70;;;2.00;99.90;;;;;;5015388;28;20679;-69
2022/12/03 00:30:52;;;;;;;19.47;9.60;;;1.90;99.90;;;;;;5012255;28;20183;-70
2022/12/03 00:33:19;;;;;;;25.50;10.67;;;1.80;99.90;;;;;;5004722;28;20191;-69
2022/12/03 00:35:45;;;;;;;21.37;10.30;;;1.80;99.90;;;;;;5009283;28;20493;-69
2022/12/03 00:38:11;;;;;;;21.17;10.07;;;1.80;99.90;;;;;;5011215;28;20442;-70
2022/12/03 00:40:36;;;;;;;23.67;12.23;;;1.80;99.90;;;;;;5008705;28;20785;-70
2022/12/03 00:43:02;;;;;;;19.77;9.03;;;1.70;99.90;;;;;;5004183;28;20258;-70
2022/12/03 00:45:28;;;;;;;26.67;12.40;;;1.70;99.90;;;;;;5010516;28;20266;-70
2022/12/03 00:47:53;;;;;;;23.97;11.73;;;1.70;99.90;;;;;;5012310;28;20186;-70
2022/12/03 00:50:19;;;;;;;23.37;11.77;;;1.60;99.90;;;;;;5007528;28;20804;-70
2022/12/03 00:52:44;;;;;;;19.90;9.47;;;1.60;99.90;;;;;;5022599;28;20201;-70
2022/12/03 00:55:10;;;;;;;23.67;11.37;;;1.50;99.90;;;;;;5009304;28;20201;-70
2022/12/03 00:57:36;;;;;;;21.13;10.20;;;1.40;99.90;;;;;;5014951;28;20632;-69
2022/12/03 01:00:03;;;;;;;21.83;11.53;;;1.40;99.90;;;;;;5011269;28;21438;-69
2022/12/03 01:02:29;;;;;;;21.50;9.70;;;1.40;99.90;;;;;;5011482;28;20222;-70
2022/12/03 01:04:55;;;;;;;28.20;12.50;;;1.40;99.90;;;;;;5007663;28;20451;-70
2022/12/03 01:07:20;;;;;;;23.47;10.37;;;1.40;99.90;;;;;;5015889;28;20198;-69
2022/12/03 01:09:46;;;;;;;35.60;13.37;;;1.40;99.90;;;;;;5015205;28;20182;-69
2022/12/03 01:12:11;;;;;;;18.60;9.40;;;1.50;99.90;;;;;;5020684;28;20194;-69
2022/12/03 01:14:37;;;;;;;28.57;10.97;;;1.40;99.90;;;;;;5008169;28;20572;-69
2022/12/03 01:17:03;;;;;;;21.17;10.77;;;1.40;99.90;;;;;;5009245;28;20552;-69
2022/12/03 01:19:28;;;;;;;35.93;11.30;;;1.40;99.90;;;;;;5012192;28;20202;-69
2022/12/03 01:21:54;;;;;;;30.07;10.67;;;1.30;99.90;;;;;;5016187;28;20197;-69
2022/12/03 01:24:20;;;;;;;28.70;10.17;;;1.40;99.90;;;;;;5016886;28;20719;-69
2022/12/03 01:26:46;;;;;;;29.00;12.47;;;1.40;99.90;;;;;;5019826;28;20644;-70
2022/12/03 01:29:12;;;;;;;28.20;11.43;;;1.30;99.90;;;;;;5016498;28;20786;-69
2022/12/03 01:34:22;;;;;;;26.83;10.30;;;1.30;99.90;;;;;;5006997;28;20984;-69
2022/12/03 01:36:48;;;;;;;20.60;10.47;;;1.30;99.90;;;;;;5008927;28;20441;-70
2022/12/03 01:39:13;;;;;;;29.63;10.83;;;1.30;99.90;;;;;;5014178;28;20205;-70
2022/12/03 01:41:39;;;;;;;49.43;13.07;;;1.40;99.90;;;;;;5012315;28;20717;-69
2022/12/03 01:44:15;;;;;;;21.70;10.73;;;1.40;99.90;;;;;;5012909;28;20214;-70
2022/12/03 01:46:41;;;;;;;23.80;11.40;;;1.40;99.90;;;;;;5009696;28;20797;-70
2022/12/03 01:49:15;;;;;;;23.10;12.47;;;1.40;99.90;;;;;;5014644;28;20453;-70
2022/12/03 01:51:41;;;;;;;14.13;9.03;;;1.40;99.90;;;;;;5013667;28;20442;-70
2022/12/03 01:54:17;;;;;;;27.93;9.80;;;1.40;99.90;;;;;;5013877;28;20488;-70
2022/12/03 01:56:44;;;;;;;27.80;11.53;;;1.40;99.90;;;;;;5013876;28;20253;-70
2022/12/03 01:59:15;;;;;;;22.83;10.23;;;1.40;99.90;;;;;;5012111;28;20453;-70
2022/12/03 02:01:41;;;;;;;26.70;10.90;;;1.40;99.90;;;;;;5012478;28;20524;-70
2022/12/03 02:04:10;;;;;;;28.37;12.10;;;1.40;99.90;;;;;;5009740;28;20556;-70
2022/12/03 02:06:36;;;;;;;25.90;12.33;;;1.40;99.90;;;;;;5010426;28;20648;-69
2022/12/03 02:09:02;;;;;;;22.20;10.40;;;1.40;99.90;;;;;;5013470;28;20449;-69
2022/12/03 02:11:32;;;;;;;40.30;11.33;;;1.40;99.90;;;;;;5010342;28;20195;-69
2022/12/03 02:14:02;;;;;;;29.77;12.10;;;1.40;99.90;;;;;;5016018;28;20255;-69
2022/12/03 02:16:29;;;;;;;21.87;11.80;;;1.40;99.90;;;;;;5009062;28;20540;-69
2022/12/03 02:18:55;;;;;;;26.80;10.20;;;1.40;99.90;;;;;;5013952;28;20446;-70
2022/12/03 02:21:40;;;;;;;23.00;11.90;;;1.50;99.90;;;;;;5012732;28;20552;-69
2022/12/03 02:24:12;;;;;;;24.57;10.47;;;1.40;99.90;;;;;;5011310;28;20505;-70
2022/12/03 02:26:37;;;;;;;31.60;11.27;;;1.40;99.90;;;;;;5012896;28;20942;-71
2022/12/03 02:29:03;;;;;;;21.07;10.10;;;1.40;99.90;;;;;;5013253;28;20449;-69
2022/12/03 02:31:30;;;;;;;24.10;10.73;;;1.40;99.90;;;;;;5014552;28;20221;-70
2022/12/03 02:33:55;;;;;;;28.87;11.63;;;1.40;99.90;;;;;;5011483;28;20567;-70
2022/12/03 02:36:21;;;;;;;20.13;9.90;;;1.30;99.90;;;;;;5012949;28;20438;-70
2022/12/03 02:38:48;;;;;;;26.93;10.67;;;1.30;99.90;;;;;;5011938;28;20199;-70
2022/12/03 02:42:33;;;;;;;22.77;10.80;;;1.30;99.90;;;;;;5019685;28;20194;-69
2022/12/03 02:44:04;;;;;;;24.50;11.80;;;1.40;99.90;;;;;;5016353;28;20523;-69
2022/12/03 02:46:30;;;;;;;29.43;11.77;;;1.30;99.90;;;;;;5013034;28;20445;-69
2022/12/03 02:48:56;;;;;;;31.00;12.07;;;1.30;99.90;;;;;;5021092;28;20985;-69
2022/12/03 02:51:21;;;;;;;22.27;10.50;;;1.30;99.90;;;;;;5012297;28;20187;-69
2022/12/03 02:53:49;;;;;;;27.03;10.73;;;1.40;99.90;;;;;;5011028;28;20764;-70
2022/12/03 02:56:19;;;;;;;21.83;11.57;;;1.50;99.90;;;;;;5013860;28;20186;-70
2022/12/03 02:58:47;;;;;;;28.97;11.17;;;1.50;99.90;;;;;;5012999;28;20470;-70
2022/12/03 03:01:14;;;;;;;22.97;10.63;;;1.50;99.90;;;;;;5011065;28;20434;-70
2022/12/03 03:03:40;;;;;;;28.60;12.23;;;1.50;99.90;;;;;;5014296;28;20596;-69
2022/12/03 03:06:07;;;;;;;22.60;9.73;;;1.50;99.90;;;;;;5012843;28;20446;-70
2022/12/03 03:08:33;;;;;;;23.00;11.93;;;1.60;99.90;;;;;;4998704;28;20438;-70
2022/12/03 03:11:00;;;;;;;17.47;9.50;;;1.60;99.90;;;;;;5011627;28;20935;-70
2022/12/03 03:13:26;;;;;;;24.40;10.47;;;1.60;99.90;;;;;;5007046;28;21065;-69
2022/12/03 03:15:52;;;;;;;24.00;10.10;;;1.70;99.90;;;;;;5015038;28;20532;-70
2022/12/03 03:18:18;;;;;;;23.37;10.93;;;1.70;99.90;;;;;;5015294;28;20226;-70
2022/12/03 03:20:44;;;;;;;25.37;12.37;;;1.70;99.90;;;;;;5012148;28;20660;-70
2022/12/03 03:23:17;;;;;;;23.67;10.73;;;1.70;99.90;;;;;;5010033;28;20558;-69
2022/12/03 03:25:57;;;;;;;19.40;8.80;;;1.70;99.90;;;;;;5004585;28;21329;-70
2022/12/03 03:28:23;;;;;;;20.43;10.60;;;1.70;99.90;;;;;;5012280;28;20927;-70
2022/12/03 03:30:48;;;;;;;26.83;9.80;;;1.70;99.90;;;;;;5011310;28;20441;-70
2022/12/03 03:33:15;;;;;;;19.20;9.53;;;1.80;99.90;;;;;;5009430;28;20449;-70
2022/12/03 03:35:42;;;;;;;28.67;10.87;;;1.80;99.90;;;;;;5010886;28;20207;-70
2022/12/03 03:38:08;;;;;;;26.83;10.43;;;1.70;99.90;;;;;;5012002;28;20491;-69
2022/12/03 03:40:35;;;;;;;24.50;11.90;;;1.80;99.90;;;;;;5011899;28;20910;-69
2022/12/03 03:43:01;;;;;;;18.63;10.13;;;1.70;99.90;;;;;;5011253;28;20466;-69
2022/12/03 03:45:27;;;;;;;27.90;10.40;;;1.80;99.90;;;;;;5014134;28;20448;-69
2022/12/03 03:47:53;;;;;;;30.23;9.83;;;1.80;99.90;;;;;;5002793;28;20191;-70
2022/12/03 03:50:19;;;;;;;24.60;11.37;;;1.80;99.90;;;;;;5011338;28;20575;-69
2022/12/03 03:52:45;;;;;;;23.90;11.00;;;1.70;99.90;;;;;;5012514;28;20445;-69
2022/12/03 03:55:11;;;;;;;29.80;12.30;;;1.70;99.90;;;;;;5011169;28;20257;-69
2022/12/03 03:57:38;;;;;;;29.93;10.00;;;1.70;99.90;;;;;;5008828;28;20524;-69
2022/12/03 04:00:06;;;;;;;21.13;9.03;;;1.70;99.90;;;;;;5013681;28;21136;-69
2022/12/03 04:02:33;;;;;;;22.03;9.93;;;1.70;99.90;;;;;;5003658;28;20781;-69
2022/12/03 04:04:59;;;;;;;18.97;10.93;;;1.70;99.90;;;;;;5010882;28;20442;-69
2022/12/03 04:07:24;;;;;;;20.03;10.00;;;1.70;99.90;;;;;;5011866;28;20437;-70
2022/12/03 04:09:50;;;;;;;32.53;11.00;;;1.70;99.90;;;;;;5014824;28;20437;-69
2022/12/03 04:15:00;;;;;;;24.00;10.43;;;1.70;99.90;;;;;;5011178;28;20209;-69
2022/12/03 04:17:26;;;;;;;26.30;10.17;;;1.70;99.90;;;;;;5019745;28;20426;-69
2022/12/03 04:19:51;;;;;;;26.30;10.23;;;1.70;99.90;;;;;;5014886;28;20574;-70
2022/12/03 04:30:29;;;;;;;23.17;9.60;;;1.60;99.90;;;;;;5001148;28;21002;-70
2022/12/03 04:35:46;;;;;;;21.03;10.13;;;1.60;99.90;;;;;;4996751;28;20194;-70
2022/12/03 04:38:14;;;;;;;24.33;8.73;;;1.60;99.90;;;;;;5009571;28;20442;-70
2022/12/03 04:43:28;;;;;;;24.27;10.00;;;1.60;99.90;;;;;;5010859;28;20953;-69
2022/12/03 04:45:54;;;;;;;22.70;9.97;;;1.60;99.90;;;;;;5010823;28;20946;-70
2022/12/03 04:48:19;;;;;;;30.73;10.87;;;1.60;99.90;;;;;;5011650;28;20477;-71
2022/12/03 04:50:45;;;;;;;16.53;9.43;;;1.60;99.90;;;;;;5008516;28;20190;-69
2022/12/03 04:53:11;;;;;;;33.30;10.73;;;1.70;99.90;;;;;;5009106;28;20273;-69
2022/12/03 04:55:36;;;;;;;21.20;9.90;;;1.70;99.90;;;;;;5011904;28;20187;-70
2022/12/03 04:58:02;;;;;;;18.87;8.77;;;1.60;99.90;;;;;;5015852;28;20194;-69
2022/12/03 05:00:27;;;;;;;21.73;8.83;;;1.60;99.90;;;;;;5012796;28;22231;-69
2022/12/03 05:02:53;;;;;;;24.23;11.60;;;1.60;99.90;;;;;;5010723;28;20237;-69
2022/12/03 05:05:18;;;;;;;28.43;9.63;;;1.60;99.90;;;;;;5013629;28;20210;-69
2022/12/03 05:07:44;;;;;;;15.40;8.03;;;1.60;99.90;;;;;;5005797;28;20313;-69
2022/12/03 05:10:10;;;;;;;23.03;8.70;;;1.70;99.90;;;;;;5010479;28;20187;-69
2022/12/03 05:12:36;;;;;;;20.43;8.87;;;1.60;99.90;;;;;;5007628;28;20849;-69
2022/12/03 05:15:02;;;;;;;20.67;10.17;;;1.60;99.90;;;;;;5010596;28;20442;-69
2022/12/03 05:17:27;;;;;;;19.10;9.83;;;1.70;99.90;;;;;;5010020;28;20195;-69
2022/12/03 05:22:37;;;;;;;26.73;10.13;;;1.70;99.90;;;;;;5006647;28;20307;-70
2022/12/03 05:25:03;;;;;;;22.83;10.27;;;1.70;99.90;;;;;;5011190;28;20524;-71
2022/12/03 05:27:29;;;;;;;16.07;7.60;;;1.60;99.90;;;;;;5013743;28;20206;-70
2022/12/03 05:29:55;;;;;;;20.00;9.47;;;1.70;99.90;;;;;;5010824;28;20444;-69
2022/12/03 05:32:20;;;;;;;18.90;7.93;;;1.60;99.90;;;;;;5010190;28;20187;-69
2022/12/03 05:34:46;;;;;;;22.30;8.70;;;1.60;99.90;;;;;;5011055;28;20651;-70
2022/12/03 05:37:11;;;;;;;22.53;7.80;;;1.70;99.90;;;;;;5009840;28;20234;-69
2022/12/03 05:39:37;;;;;;;19.60;10.67;;;1.70;99.90;;;;;;5006683;28;20315;-69
2022/12/03 05:44:47;;;;;;;16.10;8.10;;;1.70;99.90;;;;;;5005358;28;20270;-68
2022/12/03 05:47:13;;;;;;;23.17;9.60;;;1.70;99.90;;;;;;5007669;28;20502;-69
2022/12/03 05:49:38;;;;;;;19.60;9.20;;;1.70;99.90;;;;;;5012875;28;20194;-69
2022/12/03 05:52:04;;;;;;;23.47;10.40;;;1.70;99.90;;;;;;5016239;28;20215;-69
2022/12/03 05:54:30;;;;;;;27.43;9.63;;;1.70;99.90;;;;;;5007715;28;20262;-69
2022/12/03 05:56:55;;;;;;;16.40;9.30;;;1.80;99.90;;;;;;5010557;28;20608;-69
2022/12/03 05:59:21;;;;;;;38.77;10.57;;;1.80;99.90;;;;;;5015492;28;20222;-69
2022/12/03 06:01:46;;;;;;;21.83;9.07;;;1.70;99.90;;;;;;5014253;28;20712;-69
2022/12/03 06:04:12;;;;;;;21.70;9.90;;;1.70;99.90;;;;;;5018440;28;20564;-69
2022/12/03 06:06:38;;;;;;;17.50;9.50;;;1.70;99.90;;;;;;5014127;28;20186;-69
2022/12/03 06:09:03;;;;;;;15.27;9.23;;;1.70;99.90;;;;;;5014038;28;20191;-69
2022/12/03 06:11:29;;;;;;;17.63;8.70;;;1.70;99.90;;;;;;5017899;28;20209;-69
2022/12/03 06:13:55;;;;;;;21.27;9.70;;;1.70;99.90;;;;;;5024226;28;20713;-69
2022/12/03 06:16:20;;;;;;;25.70;9.27;;;1.70;99.90;;;;;;5019637;28;20202;-69
2022/12/03 06:18:46;;;;;;;17.27;9.53;;;1.70;99.90;;;;;;5009590;28;20187;-69
2022/12/03 06:21:11;;;;;;;19.60;9.50;;;1.70;99.90;;;;;;5017470;28;20190;-69
2022/12/03 06:23:43;;;;;;;30.70;8.53;;;1.70;99.90;;;;;;5012040;28;20564;-69
2022/12/03 06:26:12;;;;;;;16.00;9.30;;;1.70;99.90;;;;;;5011995;28;20198;-69
2022/12/03 06:28:37;;;;;;;20.37;9.20;;;1.70;99.90;;;;;;5010459;28;20441;-69
2022/12/03 06:31:03;;;;;;;20.70;10.33;;;1.70;99.90;;;;;;5010581;28;20438;-68
2022/12/03 06:33:29;;;;;;;20.77;9.70;;;1.70;99.90;;;;;;5017357;28;20191;-69
2022/12/03 06:35:54;;;;;;;24.07;9.17;;;1.70;99.90;;;;;;5011861;28;20187;-69
2022/12/03 06:38:21;;;;;;;24.30;10.37;;;1.70;99.90;;;;;;5013708;28;20262;-69
2022/12/03 06:40:46;;;;;;;19.43;9.20;;;1.70;99.90;;;;;;5011476;28;20274;-68
2022/12/03 06:43:12;;;;;;;23.40;9.50;;;1.70;99.90;;;;;;5011540;28;20552;-69
2022/12/03 06:45:38;;;;;;;18.77;8.70;;;1.70;99.90;;;;;;5012975;28;20210;-69
2022/12/03 06:48:03;;;;;;;22.60;9.63;;;1.70;99.90;;;;;;5015078;28;20179;-68
2022/12/03 06:50:29;;;;;;;19.10;7.83;;;1.80;99.90;;;;;;5016719;28;20278;-69
2022/12/03 06:52:55;;;;;;;15.73;7.80;;;1.80;99.90;;;;;;5020586;28;20625;-70
2022/12/03 06:55:20;;;;;;;29.00;10.60;;;1.70;99.90;;;;;;5015101;28;20183;-69
2022/12/03 06:57:46;;;;;;;18.20;8.37;;;1.70;99.90;;;;;;5013512;28;20619;-68
2022/12/03 07:00:12;;;;;;;25.40;10.00;;;1.70;99.90;;;;;;5011741;28;20277;-69
2022/12/03 07:02:38;;;;;;;23.30;10.30;;;1.80;99.90;;;;;;5011568;28;20203;-68
2022/12/03 07:05:03;;;;;;;21.47;10.83;;;1.80;99.90;;;;;;5011001;28;20446;-68
2022/12/03 07:07:29;;;;;;;22.10;9.57;;;1.80;99.90;;;;;;5012399;28;20217;-69
2022/12/03 07:09:55;;;;;;;16.90;8.20;;;1.80;99.90;;;;;;5012747;28;20434;-68
2022/12/03 07:12:20;;;;;;;21.23;8.80;;;1.80;99.90;;;;;;5012594;28;20521;-68
2022/12/03 07:14:46;;;;;;;17.93;8.60;;;1.80;99.90;;;;;;5013866;28;20198;-68
2022/12/03 07:17:11;;;;;;;28.57;10.33;;;1.90;99.90;;;;;;5015583;28;20201;-68
2022/12/03 07:19:37;;;;;;;23.03;10.17;;;1.80;99.90;;;;;;5016310;28;20628;-68
2022/12/03 07:22:03;;;;;;;22.37;11.37;;;1.90;99.90;;;;;;5017740;28;20273;-68
2022/12/03 07:24:28;;;;;;;24.13;10.13;;;1.90;99.90;;;;;;5016436;28;20226;-69
2022/12/03 07:26:54;;;;;;;31.70;10.60;;;1.90;99.90;;;;;;5026879;28;20634;-69
2022/12/03 07:29:20;;;;;;;25.27;10.47;;;1.90;99.90;;;;;;5025903;28;20210;-69
2022/12/03 07:31:46;;;;;;;16.13;8.03;;;1.90;99.90;;;;;;5015280;28;20457;-69
2022/12/03 07:34:12;;;;;;;26.90;11.27;;;1.90;99.90;;;;;;5015311;28;20457;-69
2022/12/03 07:36:37;;;;;;;19.83;8.33;;;1.90;99.90;;;;;;5021886;28;20194;-69
2022/12/03 07:39:03;;;;;;;19.00;9.23;;;1.80;99.90;;;;;;5014686;28;20191;-69
2022/12/03 07:41:29;;;;;;;29.63;9.77;;;1.90;99.90;;;;;;5012305;28;20202;-69
2022/12/03 07:43:54;;;;;;;21.03;9.73;;;1.90;99.90;;;;;;5011095;28;20257;-69
2022/12/03 07:46:20;;;;;;;17.43;8.57;;;1.90;99.90;;;;;;5012571;28;20225;-69
2022/12/03 07:48:45;;;;;;;19.83;8.23;;;1.90;99.90;;;;;;5009118;28;20210;-69
2022/12/03 07:51:11;;;;;;;30.23;10.50;;;1.90;99.90;;;;;;5010638;28;20188;-69
2022/12/03 07:53:36;;;;;;;27.00;10.33;;;1.90;99.90;;;;;;5012426;28;20555;-69
2022/12/03 07:56:03;;;;;;;17.50;10.23;;;1.90;99.90;;;;;;4994607;28;20599;-69
2022/12/03 07:58:29;;;;;;;24.53;9.90;;;1.90;99.90;;;;;;5027202;28;20232;-69
2022/12/03 08:00:55;;;;;;;22.33;9.77;;;2.00;99.90;;;;;;5032205;28;20456;-69
2022/12/03 08:03:21;;;;;;;24.47;9.03;;;2.00;99.90;;;;;;5010769;28;20497;-69
2022/12/03 08:05:47;;;;;;;35.73;10.90;;;2.00;99.90;;;;;;5011805;28;20465;-69
2022/12/03 08:08:12;;;;;;;24.60;10.53;;;2.00;99.90;;;;;;5018136;28;20608;-69
2022/12/03 08:10:38;;;;;;;24.63;10.03;;;2.00;99.90;;;;;;5011757;28;20214;-69
2022/12/03 08:13:10;;;;;;;25.20;9.67;;;2.10;99.90;;;;;;5011085;28;20191;-69
2022/12/03 08:15:35;;;;;;;20.40;9.27;;;2.00;99.90;;;;;;5009971;28;20289;-69
2022/12/03 08:18:10;;;;;;;19.57;9.03;;;2.10;99.90;;;;;;5011928;28;20603;-69
2022/12/03 08:20:39;;;;;;;23.07;9.23;;;2.10;99.90;;;;;;5009875;28;20224;-69
2022/12/03 08:23:15;;;;;;;22.87;11.10;;;2.10;99.90;;;;;;5012488;28;20987;-69
2022/12/03 08:25:42;;;;;;;15.27;8.80;;;2.10;99.90;;;;;;5014494;28;20430;-68
2022/12/03 08:28:14;;;;;;;20.07;10.40;;;2.20;99.90;;;;;;5011940;28;20424;-69
2022/12/03 08:30:42;;;;;;;30.20;10.50;;;2.20;99.90;;;;;;5018796;28;20442;-68
2022/12/03 08:33:35;;;;;;;20.67;9.33;;;2.20;99.90;;;;;;5004402;28;20446;-69
2022/12/03 08:36:12;;;;;;;22.63;10.90;;;2.20;99.90;;;;;;5007891;28;20434;-69
2022/12/03 08:38:38;;;;;;;27.17;11.77;;;2.30;99.90;;;;;;5010683;28;20513;-69
2022/12/03 08:41:14;;;;;;;24.67;9.93;;;2.30;99.90;;;;;;5009971;28;20537;-69
2022/12/03 08:43:42;;;;;;;18.63;9.70;;;2.30;99.90;;;;;;5009863;28;20758;-69
2022/12/03 08:46:17;;;;;;;19.90;9.50;;;2.30;99.90;;;;;;5005746;28;20446;-69
2022/12/03 08:48:44;;;;;;;20.27;10.53;;;2.30;99.90;;;;;;5012152;28;20437;-69
2022/12/03 08:51:12;;;;;;;23.80;9.50;;;2.30;99.90;;;;;;5023752;28;20421;-69
2022/12/03 08:54:10;;;;;;;25.63;12.33;;;2.20;99.90;;;;;;5011073;28;20472;-70
2022/12/03 08:56:36;;;;;;;22.13;10.20;;;2.20;99.90;;;;;;5005804;28;20938;-69
2022/12/03 08:59:26;;;;;;;21.70;9.60;;;2.20;99.90;;;;;;5010456;28;20426;-69
2022/12/03 09:01:52;;;;;;;24.27;11.00;;;2.20;99.90;;;;;;5000791;28;20197;-69
2022/12/03 09:04:23;;;;;;;22.10;10.17;;;2.30;99.90;;;;;;5009579;28;20991;-69
2022/12/03 09:06:50;;;;;;;22.73;10.30;;;2.30;99.90;;;;;;5010073;28;20441;-69
2022/12/03 09:09:15;;;;;;;25.63;11.33;;;2.30;99.90;;;;;;5012697;28;20510;-69
2022/12/03 09:11:44;;;;;;;22.40;9.27;;;2.30;99.90;;;;;;5007027;28;20450;-69
2022/12/03 09:14:10;;;;;;;41.93;13.53;;;2.30;99.90;;;;;;5008099;28;20266;-69
2022/12/03 09:16:36;;;;;;;26.97;10.50;;;2.30;99.90;;;;;;5007157;28;20441;-69
2022/12/03 09:19:02;;;;;;;25.67;9.97;;;2.30;99.90;;;;;;5009190;28;20807;-69
2022/12/03 09:21:28;;;;;;;30.30;10.40;;;2.30;99.90;;;;;;5015946;28;20448;-69
2022/12/03 09:23:53;;;;;;;23.33;9.47;;;2.40;99.90;;;;;;5010312;28;21003;-69
2022/12/03 09:26:19;;;;;;;19.83;8.37;;;2.40;99.90;;;;;;5010213;28;20190;-69
2022/12/03 09:28:47;;;;;;;15.90;7.63;;;2.40;99.90;;;;;;5009052;28;20183;-69
2022/12/03 09:31:13;;;;;;;16.80;9.07;;;2.50;99.90;;;;;;5010132;28;20819;-69
2022/12/03 09:33:38;;;;;;;20.43;9.27;;;2.50;99.90;;;;;;5009886;28;20980;-69
2022/12/03 09:36:05;;;;;;;25.80;10.67;;;2.50;99.90;;;;;;5022128;28;20425;-68
2022/12/03 09:38:30;;;;;;;21.33;8.20;;;2.60;99.90;;;;;;5023914;28;20640;-70
2022/12/03 09:40:56;;;;;;;20.93;8.80;;;2.60;99.90;;;;;;5010187;28;20456;-70
2022/12/03 09:43:22;;;;;;;18.73;9.67;;;2.50;99.90;;;;;;5012220;28;20309;-70
2022/12/03 09:45:48;;;;;;;16.20;8.70;;;2.60;99.90;;;;;;5011672;28;20254;-70
2022/12/03 09:48:17;;;;;;;17.43;8.43;;;2.70;99.90;;;;;;5014165;28;20176;-70
2022/12/03 09:50:43;;;;;;;16.33;8.10;;;2.60;99.90;;;;;;5020058;28;20441;-70
2022/12/03 09:53:16;;;;;;;17.77;9.70;;;2.50;99.90;;;;;;5007877;28;20445;-70
2022/12/03 09:55:43;;;;;;;15.63;7.97;;;2.50;99.90;;;;;;5012550;28;20445;-70
2022/12/03 09:58:11;;;;;;;24.20;9.50;;;2.50;99.90;;;;;;5009701;28;20442;-70
2022/12/03 10:00:38;;;;;;;16.50;8.47;;;2.50;99.90;;;;;;5022592;28;20741;-70
2022/12/03 10:03:05;;;;;;;17.80;8.47;;;2.50;99.90;;;;;;5008126;28;20474;-70
2022/12/03 10:05:32;;;;;;;25.77;8.37;;;2.40;99.90;;;;;;5009322;28;20529;-70
2022/12/03 10:08:05;;;;;;;23.47;9.07;;;2.40;99.90;;;;;;5012837;28;20456;-70
2022/12/03 10:10:32;;;;;;;18.43;7.43;;;2.30;99.90;;;;;;5012583;28;20430;-70
2022/12/03 10:12:58;;;;;;;21.10;9.60;;;2.40;99.90;;;;;;5011178;28;20437;-70
2022/12/03 10:15:24;;;;;;;20.80;8.40;;;2.40;99.90;;;;;;5013356;28;20441;-70
2022/12/03 10:17:52;;;;;;;22.10;9.83;;;2.40;99.90;;;;;;5014030;28;20784;-70
2022/12/03 10:20:21;;;;;;;21.13;9.70;;;2.40;99.90;;;;;;5011616;28;20198;-70
2022/12/03 10:22:47;;;;;;;23.33;9.87;;;2.40;99.90;;;;;;5025570;28;20514;-70
2022/12/03 10:25:16;;;;;;;28.80;11.00;;;2.40;99.90;;;;;;5014829;28;20518;-70
2022/12/03 10:27:53;;;;;;;22.60;10.60;;;2.40;99.90;;;;;;5009212;28;20426;-70
2022/12/03 10:30:22;;;;;;;23.97;10.60;;;2.40;99.90;;;;;;5008155;28;21105;-70
2022/12/03 10:32:49;;;;;;;20.87;10.00;;;2.30;99.90;;;;;;5009380;28;20562;-70
2022/12/03 10:35:16;;;;;;;26.50;10.30;;;2.30;99.90;;;;;;5004492;28;21075;-70
2022/12/03 10:38:02;;;;;;;24.93;10.97;;;2.30;99.90;;;;;;5008286;28;20496;-70
2022/12/03 10:40:38;;;;;;;24.03;10.53;;;2.40;99.90;;;;;;5009463;28;20478;-70
2022/12/03 10:43:18;;;;;;;24.67;10.77;;;2.40;99.90;;;;;;5011836;28;21120;-70
2022/12/03 10:46:11;;;;;;;19.30;10.23;;;2.40;99.90;;;;;;5012250;28;20416;-70
2022/12/03 10:48:37;;;;;;;21.23;8.83;;;2.30;99.90;;;;;;5000761;28;20426;-68
2022/12/03 10:51:17;;;;;;;20.73;9.33;;;2.40;99.90;;;;;;5001995;28;20447;-70
2022/12/03 10:53:42;;;;;;;23.80;10.03;;;2.40;99.90;;;;;;5017224;28;20504;-70
2022/12/03 10:56:38;;;;;;;20.53;9.40;;;2.40;99.90;;;;;;5010809;28;20530;-71
2022/12/03 10:59:03;;;;;;;22.63;8.60;;;2.40;99.90;;;;;;4999693;28;20743;-71
2022/12/03 11:01:30;;;;;;;22.30;9.07;;;2.30;99.90;;;;;;5012865;28;20438;-75
2022/12/03 11:04:02;;;;;;;21.87;9.73;;;2.40;99.90;;;;;;5009930;28;20660;-73
2022/12/03 11:06:30;;;;;;;20.03;8.73;;;2.30;99.90;;;;;;5010537;28;20422;-74
2022/12/03 11:08:56;;;;;;;25.73;9.20;;;2.30;99.90;;;;;;5011610;28;20445;-71
2022/12/03 11:11:28;;;;;;;30.53;10.70;;;2.30;99.90;;;;;;5010278;28;20442;-71
2022/12/03 11:13:58;;;;;;;24.43;9.47;;;2.30;99.90;;;;;;5008194;28;20504;-71
2022/12/03 11:16:39;;;;;;;14.50;7.83;;;2.30;99.90;;;;;;5023116;28;20436;-73
2022/12/03 11:19:17;;;;;;;25.50;9.20;;;2.40;99.90;;;;;;5011278;28;20883;-70
2022/12/03 11:22:05;;;;;;;19.07;9.10;;;2.30;99.90;;;;;;5010669;28;20950;-71
2022/12/03 11:24:35;;;;;;;25.00;9.63;;;2.30;99.90;;;;;;5007619;28;20465;-70
2022/12/03 11:27:01;;;;;;;22.57;9.27;;;2.30;99.90;;;;;;5013699;28;21122;-69
2022/12/03 11:29:49;;;;;;;18.13;8.07;;;2.20;99.90;;;;;;5014465;28;20477;-67
2022/12/03 11:32:37;;;;;;;15.73;8.63;;;2.10;99.90;;;;;;5010800;28;20303;-65
2022/12/03 11:35:10;;;;;;;17.07;8.53;;;2.10;99.90;;;;;;5006593;28;20478;-64
2022/12/03 11:37:36;;;;;;;16.47;8.07;;;2.00;99.90;;;;;;5019270;23;20507;-72
2022/12/03 11:40:25;;;;;;;20.40;9.50;;;2.00;99.90;;;;;;5008581;28;20458;-70
2022/12/03 11:42:51;;;;;;;28.90;9.27;;;2.10;99.90;;;;;;5010506;28;20207;-71
2022/12/03 11:45:31;;;;;;;20.67;8.03;;;2.00;99.90;;;;;;5010904;28;20422;-70
2022/12/03 11:48:14;;;;;;;16.33;7.87;;;2.10;99.90;;;;;;5009465;28;20183;-70
2022/12/03 11:50:42;;;;;;;17.67;8.60;;;2.20;99.90;;;;;;5004159;28;20945;-70
2022/12/03 11:53:15;;;;;;;16.20;7.80;;;2.20;99.90;;;;;;5007526;28;20441;-70
2022/12/03 11:55:46;;;;;;;20.33;9.03;;;2.20;99.90;;;;;;5010452;28;20440;-70
2022/12/03 11:58:26;;;;;;;18.20;8.87;;;2.20;99.90;;;;;;5011074;28;20418;-70
2022/12/03 12:00:57;;;;;;;15.73;7.47;;;2.30;99.90;;;;;;5003724;28;20538;-69
2022/12/03 12:03:51;;;;;;;21.33;9.07;;;2.30;99.90;;;;;;5002406;28;20549;-70
2022/12/03 12:06:19;;;;;;;15.00;8.97;;;2.30;99.90;;;;;;5009721;28;20468;-70
2022/12/03 12:08:51;;;;;;;12.20;7.10;;;2.20;99.90;;;;;;5011044;28;20887;-70
2022/12/03 12:11:19;;;;;;;17.87;8.07;;;2.10;99.90;;;;;;5010706;28;20410;-70
2022/12/03 12:13:53;;;;;;;19.13;9.03;;;2.10;99.90;;;;;;5008870;28;20528;-71
2022/12/03 12:16:46;;;;;;;23.10;7.60;;;2.20;99.90;;;;;;5009505;28;20976;-71
2022/12/03 12:19:35;;;;;;;27.47;8.30;;;2.20;99.90;;;;;;5006129;28;20560;-71
2022/12/03 12:22:21;;;;;;;19.27;7.60;;;1.90;99.90;;;;;;5006451;28;20426;-70
2022/12/03 12:24:50;;;;;;;14.03;6.87;;;2.00;99.90;;;;;;5002942;28;20486;-70
2022/12/03 12:27:48;;;;;;;26.90;7.90;;;2.10;99.90;;;;;;5009843;28;20453;-71
2022/12/03 12:30:15;;;;;;;15.47;7.67;;;2.10;99.90;;;;;;5010831;28;20433;-70
2022/12/03 12:32:57;;;;;;;13.70;6.67;;;2.20;99.90;;;;;;5022320;28;20440;-70
2022/12/03 12:35:24;;;;;;;20.27;8.00;;;2.20;99.90;;;;;;5018836;28;20421;-69
2022/12/03 12:38:14;;;;;;;13.73;7.17;;;2.20;99.90;;;;;;5012375;28;20560;-77
2022/12/03 12:40:44;;;;;;;17.93;7.27;;;2.20;99.90;;;;;;5024435;28;20500;-77
2022/12/03 12:43:24;;;;;;;21.50;6.97;;;2.20;99.90;;;;;;5012293;28;20816;-73
2022/12/03 12:45:54;;;;;;;16.20;7.80;;;2.20;99.90;;;;;;5011416;28;20434;-75
2022/12/03 12:48:33;;;;;;;20.90;7.73;;;2.10;99.90;;;;;;5011762;28;20430;-74
2022/12/03 12:51:09;;;;;;;24.43;8.73;;;2.10;99.90;;;;;;5011016;28;20421;-70
2022/12/03 12:53:36;;;;;;;11.50;6.40;;;2.10;99.90;;;;;;5011256;28;20933;-69
2022/12/03 12:56:25;;;;;;;17.57;7.23;;;2.20;99.90;;;;;;5011177;28;20906;-67
2022/12/03 12:58:52;;;;;;;17.77;7.40;;;2.20;99.90;;;;;;5010822;28;20783;-67
2022/12/03 13:01:27;;;;;;;21.70;9.37;;;2.20;99.90;;;;;;5008003;28;20946;-67
2022/12/03 13:03:53;;;;;;;29.30;9.43;;;2.10;99.90;;;;;;5006802;28;20497;-67
2022/12/03 13:06:24;;;;;;;19.43;8.50;;;2.10;99.90;;;;;;5010195;28;20465;-67
2022/12/03 13:08:50;;;;;;;14.67;7.03;;;2.10;99.90;;;;;;5010271;28;20549;-67
2022/12/03 13:11:25;;;;;;;16.93;8.20;;;2.10;99.90;;;;;;5009461;28;20418;-67
2022/12/03 13:13:50;;;;;;;16.83;7.27;;;2.10;99.90;;;;;;5010091;28;20504;-67
2022/12/03 13:16:24;;;;;;;19.43;7.80;;;2.00;99.90;;;;;;5011443;28;20514;-67